Thunderstorms From: 20-05-2018 15:00 Until: 21-05-2018 15:00 warning for: Thunderstorms Level: Yellow info button

Although rather usual in this region, locally or potentially dangerous phenomena are expected. (such as local winds, summer thunderstorms, rising streams or high waves) Be aware and pay attention to the latest weather updates, especially if you carry out activities exposed to weather or close to a stream or shoreline. 


Meteo18 Weather Cam more information Meteo18 Weather Cam


warning for Thunderstorms more information blitzortung!


Rain radar more information rain snow radar


Visit our other weather sites:

Template documentation
and downloads

And another site



Weather Underground History page Text

Daily Summary for March 6, 2016 Units:  Metric    English   Both
« Previous Day
Next Day »
Daily Weekly Monthly Yearly Custom
  High: Low: Average:
Temperature: -17.8 °C -17.6 °C -15.7 °C
Dew Point: -17.8 °C -17.9 °C -17.1 °C
Humidity: Humidity % 59 % 84 %
Wind Speed: 0 km/h 0 km/h 1.3 km/h
Wind Gust: 0 km/h - -
Wind:- - SE
Pressure: 0 hPa 33992.1 hPa -
Precipitation: 0 mm    
Historical Graphs
 
 
Tabular Data for March 6, 2016
Time Temperature Dew Point Pressure Wind Wind Speed Wind Gust Humidity Rainfall Rate (Hourly)
-17.8 °C -17.8 °C 0 hPa Calm     Humidity % 0 mm
00:02 -16.6 °C -17.2 °C 33992.1 hPa Calm   2.6 km/h 93 % 0 mm
00:07 -16.6 °C -17.2 °C 33992.1 hPa Calm   2.6 km/h 93 % 0 mm
00:12 -16.8 °C -17.3 °C 33992.1 hPa Calm   2.6 km/h 93 % 0 mm
00:17 -16.8 °C -17.3 °C 33992.1 hPa Calm   2.6 km/h 94 % 0 mm
00:22 -16.9 °C -17.4 °C 33992.1 hPa Calm     94 % 0 mm
00:27 -16.9 °C -17.4 °C 33992.1 hPa Calm     94 % 0 mm
00:32 -16.9 °C -17.3 °C 33992.1 hPa Calm   2.6 km/h 95 % 0 mm
00:42 -16.9 °C -17.3 °C 33992.1 hPa Calm   2.6 km/h 95 % 0 mm
00:47 -16.9 °C -17.3 °C 33992.1 hPa Calm   5.1 km/h 95 % 0 mm
00:52 -16.9 °C -17.3 °C 33992.1 hPa Calm   5.1 km/h 95 % 0 mm
00:57 -16.9 °C -17.3 °C 33992.1 hPa Calm   7.7 km/h 95 % 0 mm
01:02 -17 °C -17.4 °C 33992.1 hPa Calm   7.7 km/h 95 % 0 mm
01:07 -17 °C -17.4 °C 33992.1 hPa Calm   7.7 km/h 95 % 0 mm
01:12 -17 °C -17.4 °C 34005.6 hPa Calm   2.6 km/h 95 % 0 mm
01:17 -17.1 °C -17.4 °C 34005.6 hPa Calm   2.6 km/h 95 % 0 mm
01:22 -17.1 °C -17.4 °C 34005.6 hPa Calm   2.6 km/h 95 % 0 mm
01:27 -17.1 °C -17.4 °C 34005.6 hPa Calm   2.6 km/h 95 % 0 mm
01:32 -17.1 °C -17.5 °C 34005.6 hPa Calm   2.6 km/h 95 % 0 mm
01:37 -17.2 °C -17.6 °C 34005.6 hPa Calm   2.6 km/h 95 % 0 mm
01:42 -17.2 °C -17.6 °C 34005.6 hPa Calm   2.6 km/h 95 % 0 mm
01:47 -17.3 °C -17.7 °C 34005.6 hPa Calm   2.6 km/h 95 % 0 mm
01:52 -17.4 °C -17.8 °C 34005.6 hPa Calm   2.6 km/h 95 % 0 mm
02:02 -17.6 °C -17.9 °C 34015.8 hPa Calm   2.6 km/h 95 % 0 mm
02:07 -17.6 °C -17.9 °C 34015.8 hPa Calm   2.6 km/h 96 % 0 mm
02:12 -17.4 °C -17.8 °C 34015.8 hPa Calm   2.6 km/h 96 % 0 mm
02:17 -17.4 °C -17.8 °C 34015.8 hPa Calm   2.6 km/h 96 % 0 mm
02:22 -17.4 °C -17.7 °C 34015.8 hPa Calm     96 % 0 mm
02:27 -17.3 °C -17.7 °C 34015.8 hPa Calm     96 % 0 mm
02:32 -17.3 °C -17.6 °C 34015.8 hPa Calm     96 % 0 mm
02:37 -17.3 °C -17.6 °C 34015.8 hPa Calm     96 % 0 mm
02:42 -17.2 °C -17.6 °C 34015.8 hPa Calm     96 % 0 mm
02:47 -17.2 °C -17.5 °C 34015.8 hPa Calm     96 % 0 mm
02:52 -17.2 °C -17.5 °C 34015.8 hPa Calm     96 % 0 mm
02:57 -17.1 °C -17.3 °C 34015.8 hPa Calm     97 % 0 mm
03:02 -17 °C -17.2 °C 34015.8 hPa Calm   2.6 km/h 97 % 0 mm
03:07 -16.9 °C -17.1 °C 34015.8 hPa Calm   2.6 km/h 97 % 0 mm
03:12 -16.8 °C -17.1 °C 34015.8 hPa Calm   2.6 km/h 97 % 0 mm
03:17 -16.8 °C -17.1 °C 34015.8 hPa Calm   2.6 km/h 96 % 0 mm
03:22 -16.8 °C -17.1 °C 34029.3 hPa Calm   2.6 km/h 96 % 0 mm
03:27 -16.7 °C -17.1 °C 34029.3 hPa Calm   2.6 km/h 96 % 0 mm
03:32 -16.7 °C -17 °C 34029.3 hPa Calm   2.6 km/h 96 % 0 mm
03:37 -16.6 °C -16.9 °C 34029.3 hPa Calm   2.6 km/h 96 % 0 mm
03:42 -16.6 °C -16.9 °C 34029.3 hPa Calm   2.6 km/h 96 % 0 mm
03:47 -16.6 °C -17 °C 34029.3 hPa Calm   2.6 km/h 95 % 0 mm
03:52 -16.6 °C -17 °C 34029.3 hPa Calm   5.1 km/h 95 % 0 mm
03:57 -16.6 °C -17 °C 34029.3 hPa Calm   5.1 km/h 95 % 0 mm
04:07 -16.6 °C -17 °C 34029.3 hPa Calm   2.6 km/h 95 % 0 mm
04:12 -16.6 °C -17 °C 34029.3 hPa Calm   2.6 km/h 95 % 0 mm
04:17 -16.6 °C -17 °C 34029.3 hPa Calm   2.6 km/h 95 % 0 mm
04:22 -16.6 °C -17 °C 34029.3 hPa Calm   2.6 km/h 95 % 0 mm
04:27 -16.6 °C -17 °C 34029.3 hPa Calm   2.6 km/h 95 % 0 mm
04:32 -16.6 °C -17 °C 34029.3 hPa Calm     95 % 0 mm
04:37 -16.6 °C -17 °C 34029.3 hPa Calm   2.6 km/h 95 % 0 mm
04:42 -16.6 °C -17 °C 34029.3 hPa Calm   2.6 km/h 95 % 0 mm
04:47 -16.6 °C -17 °C 34029.3 hPa Calm   2.6 km/h 95 % 0 mm
04:52 -16.6 °C -16.9 °C 34039.5 hPa Calm   2.6 km/h 95 % 0 mm
04:57 -16.6 °C -17 °C 34029.3 hPa Calm   5.1 km/h 95 % 0 mm
05:02 -16.6 °C -17.1 °C 34039.5 hPa Calm   5.1 km/h 94 % 0 mm
05:12 -16.6 °C -17.1 °C 34039.5 hPa Calm   7.7 km/h 94 % 0 mm
05:17 -16.7 °C -17.2 °C 34039.5 hPa Calm   7.7 km/h 94 % 0 mm
05:27 -16.7 °C -17.2 °C 34049.6 hPa Calm   2.6 km/h 94 % 0 mm
05:32 -16.6 °C -17.1 °C 34039.5 hPa Calm   2.6 km/h 94 % 0 mm
05:37 -16.6 °C -17.1 °C 34039.5 hPa Calm   5.1 km/h 94 % 0 mm
05:42 -16.6 °C -17.1 °C 34049.6 hPa Calm   5.1 km/h 94 % 0 mm
05:47 -16.6 °C -17.1 °C 34049.6 hPa Calm   2.6 km/h 94 % 0 mm
05:52 -16.6 °C -17.1 °C 34049.6 hPa Calm   2.6 km/h 94 % 0 mm
06:07 -16.7 °C -17.2 °C 34049.6 hPa Calm   2.6 km/h 94 % 0 mm
06:12 -16.7 °C -17.2 °C 34049.6 hPa Calm   7.7 km/h 94 % 0 mm
06:17 -16.7 °C -17.2 °C 34049.6 hPa Calm   7.7 km/h 94 % 0 mm
06:22 -16.8 °C -17.3 °C 34049.6 hPa Calm   2.6 km/h 94 % 0 mm
06:27 -16.8 °C -17.3 °C 34049.6 hPa Calm   2.6 km/h 94 % 0 mm
06:32 -16.8 °C -17.3 °C 34049.6 hPa Calm   2.6 km/h 94 % 0 mm
06:37 -16.8 °C -17.3 °C 34049.6 hPa Calm   2.6 km/h 94 % 0 mm
06:42 -16.8 °C -17.3 °C 34063.2 hPa Calm   2.6 km/h 94 % 0 mm
06:47 -16.8 °C -17.3 °C 34063.2 hPa Calm   2.6 km/h 94 % 0 mm
06:52 -16.9 °C -17.4 °C 34063.2 hPa Calm   2.6 km/h 94 % 0 mm
06:57 -16.9 °C -17.4 °C 34063.2 hPa Calm   2.6 km/h 94 % 0 mm
07:02 -17 °C -17.5 °C 34063.2 hPa Calm   2.6 km/h 94 % 0 mm
07:07 -17.1 °C -17.4 °C 34063.2 hPa Calm     95 % 0 mm
07:17 -17.1 °C -17.4 °C 34063.2 hPa Calm     95 % 0 mm
07:22 -17.1 °C -17.4 °C 34063.2 hPa Calm     95 % 0 mm
07:32 -17.2 °C -17.6 °C 34073.3 hPa Calm     95 % 0 mm
07:37 -17.2 °C -17.6 °C 34073.3 hPa Calm     95 % 0 mm
07:42 -17.1 °C -17.4 °C 34073.3 hPa Calm     96 % 0 mm
07:47 -17.1 °C -17.4 °C 34073.3 hPa Calm     96 % 0 mm
07:52 -17 °C -17.3 °C 34073.3 hPa Calm     96 % 0 mm
07:57 -17 °C -17.4 °C 34073.3 hPa Calm     95 % 0 mm
08:02 -16.9 °C -17.3 °C 34073.3 hPa Calm     95 % 0 mm
08:12 -16.9 °C -17.3 °C 34073.3 hPa Calm   2.6 km/h 95 % 0 mm
08:17 -16.9 °C -17.3 °C 34086.9 hPa NE 2.6 km/h 2.6 km/h 95 % 0 mm
08:22 -16.9 °C -17.3 °C 34086.9 hPa Calm   7.7 km/h 95 % 0 mm
08:32 -16.8 °C -17.2 °C 34086.9 hPa Calm   7.7 km/h 95 % 0 mm
08:42 -16.8 °C -17.2 °C 34086.9 hPa Calm   2.6 km/h 95 % 0 mm
08:52 -16.7 °C -17.1 °C 34086.9 hPa Calm   2.6 km/h 95 % 0 mm
08:57 -16.6 °C -17.1 °C 34086.9 hPa Calm   5.1 km/h 94 % 0 mm
09:02 -16.6 °C -17.1 °C 34097 hPa NNE 5.1 km/h 12.9 km/h 94 % 0 mm
09:07 -16.6 °C -17.1 °C 34097 hPa Calm   12.9 km/h 94 % 0 mm
09:12 -16.5 °C -17 °C 34097 hPa Calm   12.9 km/h 94 % 0 mm
09:17 -16.5 °C -17.1 °C 34097 hPa Calm   7.7 km/h 93 % 0 mm
09:22 -16.5 °C -17.1 °C 34097 hPa SW 5.1 km/h 7.7 km/h 93 % 0 mm
09:27 -16.6 °C -17.1 °C 34097 hPa Calm   7.7 km/h 93 % 0 mm
09:37 -16.5 °C -17.1 °C 34107.2 hPa ENE 2.6 km/h 7.7 km/h 93 % 0 mm
09:42 -16.4 °C -17 °C 34107.2 hPa Calm   7.7 km/h 93 % 0 mm
09:47 -16.3 °C -16.9 °C 34107.2 hPa ENE 2.6 km/h 10.3 km/h 93 % 0 mm
09:52 -16.3 °C -17 °C 34107.2 hPa NNE 5.1 km/h 10.3 km/h 92 % 0 mm
09:57 -16.2 °C -16.9 °C 34107.2 hPa Calm   12.9 km/h 92 % 0 mm
10:02 -16.1 °C -16.7 °C 34107.2 hPa Calm   12.9 km/h 92 % 0 mm
10:07 -16 °C -16.8 °C 34107.2 hPa Calm   5.1 km/h 90 % 0 mm
10:12 -15.9 °C -16.7 °C 34107.2 hPa ENE 2.6 km/h 10.3 km/h 91 % 0 mm
10:17 -16 °C -16.7 °C 34107.2 hPa ENE 2.6 km/h 10.3 km/h 91 % 0 mm
10:22 -16 °C -16.8 °C 34120.7 hPa WSW 5.1 km/h 10.3 km/h 90 % 0 mm
10:32 -15.6 °C -16.5 °C 34120.7 hPa Calm   7.7 km/h 89 % 0 mm
10:37 -15.4 °C -16.4 °C 34120.7 hPa SW 2.6 km/h 7.7 km/h 88 % 0 mm
10:42 -15.2 °C -16.3 °C 34120.7 hPa Calm   10.3 km/h 86 % 0 mm
10:47 -15.1 °C -16.2 °C 34120.7 hPa Calm   10.3 km/h 87 % 0 mm
10:52 -14.8 °C -16 °C 34120.7 hPa Calm   10.3 km/h 86 % 0 mm
10:57 -14.8 °C -16.3 °C 34120.7 hPa WSW 7.7 km/h 12.9 km/h 83 % 0 mm
11:02 -14.6 °C -15.9 °C 34120.7 hPa Calm   15.6 km/h 85 % 0 mm
11:07 -14.5 °C -16.1 °C 34107.2 hPa SW 7.7 km/h 15.6 km/h 82 % 0 mm
11:12 -14.4 °C -16.1 °C 34120.7 hPa Calm   12.9 km/h 81 % 0 mm
11:17 -14.5 °C -16.4 °C 34120.7 hPa SW 5.1 km/h 12.9 km/h 79 % 0 mm
11:27 -14.3 °C -16.1 °C 34107.2 hPa WSW 5.1 km/h 12.9 km/h 80 % 0 mm
11:32 -14.4 °C -16.3 °C 34120.7 hPa SW 5.1 km/h 12.9 km/h 79 % 0 mm
11:37 -14.2 °C -16.1 °C 34120.7 hPa Calm   12.9 km/h 79 % 0 mm
11:47 -14.2 °C -16.1 °C 34120.7 hPa SE 2.6 km/h 15.6 km/h 79 % 0 mm
11:52 -14.2 °C -16.2 °C 34120.7 hPa SW 10.3 km/h 15.6 km/h 78 % 0 mm
11:57 -14.4 °C -16.6 °C 34120.7 hPa Calm   15.6 km/h 76 % 0 mm
12:07 -14.8 °C -16.7 °C 34120.7 hPa NE 5.1 km/h 18.2 km/h 79 % 0 mm
12:12 -14.9 °C -16.8 °C 34120.7 hPa East 2.6 km/h 18.2 km/h 79 % 0 mm
12:17 -14.8 °C -16.5 °C 34120.7 hPa Calm   23.3 km/h 81 % 0 mm
12:22 -14.5 °C -16.4 °C 34120.7 hPa SE 2.6 km/h 25.9 km/h 78 % 0 mm
12:27 -14.4 °C -16.5 °C 34120.7 hPa Calm   25.9 km/h 77 % 0 mm
12:32 -14.1 °C -16.3 °C 34120.7 hPa NE 10.3 km/h 25.9 km/h 76 % 0 mm
12:42 -13.8 °C -16.3 °C 34120.7 hPa SSW 5.1 km/h 12.9 km/h 73 % 0 mm
12:47 -13.9 °C -16.7 °C 34107.2 hPa South 5.1 km/h 12.9 km/h 71 % 0 mm
12:52 -14.1 °C -16.4 °C 34107.2 hPa South 5.1 km/h 12.9 km/h 74 % 0 mm
12:57 -14.1 °C -16.4 °C 34107.2 hPa ENE 7.7 km/h 10.3 km/h 74 % 0 mm
13:02 -14.1 °C -16.6 °C 34107.2 hPa NE 12.9 km/h 12.9 km/h 73 % 0 mm
13:07 -14.2 °C -16.6 °C 34107.2 hPa Calm   18.2 km/h 74 % 0 mm
13:12 -14.1 °C -16.4 °C 34107.2 hPa Calm   18.2 km/h 75 % 0 mm
13:17 -14.2 °C -16.7 °C 34107.2 hPa Calm   18.2 km/h 73 % 0 mm
13:22 -14.1 °C -16.4 °C 34107.2 hPa NE 7.7 km/h 10.3 km/h 75 % 0 mm
13:27 -14.1 °C -16.6 °C 34107.2 hPa NE 2.6 km/h 10.3 km/h 73 % 0 mm
13:32 -14.4 °C -16.9 °C 34107.2 hPa Calm   12.9 km/h 73 % 0 mm
13:37 -14.5 °C -16.8 °C 34107.2 hPa NE 7.7 km/h 12.9 km/h 75 % 0 mm
13:42 -14.6 °C -16.9 °C 34097 hPa Calm   12.9 km/h 74 % 0 mm
13:47 -14.4 °C -16.8 °C 34107.2 hPa ENE 5.1 km/h 7.7 km/h 74 % 0 mm
13:52 -14.1 °C -16.6 °C 34097 hPa Calm   15.6 km/h 73 % 0 mm
13:57 -13.9 °C -16.4 °C 34097 hPa Calm   15.6 km/h 73 % 0 mm
14:02 -13.6 °C -16.2 °C 34097 hPa SW 2.6 km/h 15.6 km/h 72 % 0 mm
14:07 -13.4 °C -16.6 °C 34097 hPa ENE 2.6 km/h 10.3 km/h 67 % 0 mm
14:17 -13.5 °C -16.3 °C 34086.9 hPa Calm   18.2 km/h 70 % 0 mm
14:22 -13.5 °C -16.8 °C 34086.9 hPa Calm   18.2 km/h 66 % 0 mm
14:27 -13.7 °C -16.7 °C 34086.9 hPa NE 7.7 km/h 18.2 km/h 68 % 0 mm
14:32 -13.7 °C -16.6 °C 34086.9 hPa SW 2.6 km/h 15.6 km/h 69 % 0 mm
14:37 -13.6 °C -16.6 °C 34086.9 hPa Calm   15.6 km/h 68 % 0 mm
14:42 -13.4 °C -16.6 °C 34086.9 hPa WSW 5.1 km/h 15.6 km/h 67 % 0 mm
14:47 -13.3 °C -16.7 °C 34073.3 hPa Calm   12.9 km/h 66 % 0 mm
14:52 -13.3 °C -16.7 °C 34073.3 hPa SSW 5.1 km/h 10.3 km/h 65 % 0 mm
14:57 -13.2 °C -16.8 °C 34073.3 hPa SW 10.3 km/h 10.3 km/h 64 % 0 mm
15:02 -13.4 °C -16.9 °C 34073.3 hPa Calm   15.6 km/h 64 % 0 mm
15:07 -13.6 °C -17 °C 34073.3 hPa SSW 2.6 km/h 15.6 km/h 65 % 0 mm
15:12 -13.7 °C -17.1 °C 34073.3 hPa East 2.6 km/h 15.6 km/h 65 % 0 mm
15:17 -13.7 °C -16.9 °C 34073.3 hPa Calm   15.6 km/h 66 % 0 mm
15:22 -13.4 °C -16.6 °C 34073.3 hPa NE 2.6 km/h 12.9 km/h 67 % 0 mm
15:32 -13.4 °C -17.2 °C 34073.3 hPa South 2.6 km/h 12.9 km/h 62 % 0 mm
15:37 -13.7 °C -17.4 °C 34073.3 hPa ENE 5.1 km/h 20.8 km/h 63 % 0 mm
15:42 -13.9 °C -17.2 °C 34073.3 hPa Calm   20.8 km/h 66 % 0 mm
15:47 -14 °C -17.4 °C 34073.3 hPa NE 2.6 km/h 20.8 km/h 65 % 0 mm
16:07 -13.6 °C -17.6 °C 34063.2 hPa NE 2.6 km/h 18.2 km/h 60 % 0 mm
16:12 -13.7 °C -17.6 °C 34073.3 hPa Calm   18.2 km/h 61 % 0 mm
16:17 -13.8 °C -17.7 °C 34073.3 hPa ENE 5.1 km/h 18.2 km/h 61 % 0 mm
16:22 -13.9 °C -17.7 °C 34063.2 hPa NE 5.1 km/h 15.6 km/h 62 % 0 mm
16:27 -13.7 °C -17.1 °C 34063.2 hPa ENE 10.3 km/h 15.6 km/h 65 % 0 mm
16:32 -13.6 °C -17.4 °C 34063.2 hPa NE 10.3 km/h 15.6 km/h 62 % 0 mm
16:37 -13.8 °C -17.9 °C 34063.2 hPa ENE 12.9 km/h 23.3 km/h 59 % 0 mm
16:42 -13.8 °C -17.6 °C 34063.2 hPa Calm   23.3 km/h 62 % 0 mm
16:47 -13.9 °C -17.7 °C 34063.2 hPa NE 2.6 km/h 23.3 km/h 62 % 0 mm
16:52 -14 °C -17.9 °C 34063.2 hPa ENE 10.3 km/h 20.8 km/h 61 % 0 mm
17:02 -14.1 °C -17.3 °C 34063.2 hPa Calm   18.2 km/h 66 % 0 mm
17:07 -14.1 °C -17.6 °C 34063.2 hPa East 2.6 km/h 15.6 km/h 64 % 0 mm
17:12 -14.2 °C -17.7 °C 34063.2 hPa NE 2.6 km/h 15.6 km/h 64 % 0 mm
17:22 -14.3 °C -17.6 °C 34063.2 hPa ENE 2.6 km/h 18.2 km/h 66 % 0 mm
17:27 -14.3 °C -17.5 °C 34063.2 hPa Calm   18.2 km/h 67 % 0 mm
17:32 -14.4 °C -17.8 °C 34063.2 hPa Calm   18.2 km/h 65 % 0 mm
17:42 -14.4 °C -17.4 °C 34063.2 hPa Calm   5.1 km/h 68 % 0 mm
17:52 -14.4 °C -17.5 °C 34049.6 hPa Calm   5.1 km/h 68 % 0 mm
18:02 -14.5 °C -17.3 °C 34049.6 hPa Calm     70 % 0 mm
18:07 -14.6 °C -17.3 °C 34063.2 hPa Calm   2.6 km/h 71 % 0 mm
18:12 -14.6 °C -17.2 °C 34049.6 hPa Calm   2.6 km/h 72 % 0 mm
18:17 -14.7 °C -17.2 °C 34049.6 hPa Calm   2.6 km/h 73 % 0 mm
18:27 -14.8 °C -17.3 °C 34063.2 hPa Calm   2.6 km/h 73 % 0 mm
18:32 -14.8 °C -17.3 °C 34063.2 hPa SW 5.1 km/h 5.1 km/h 73 % 0 mm
18:42 -14.9 °C -17.3 °C 34063.2 hPa Calm   5.1 km/h 74 % 0 mm
18:47 -14.9 °C -17.2 °C 34063.2 hPa Calm   5.1 km/h 75 % 0 mm
18:52 -15 °C -17.2 °C 34063.2 hPa Calm   2.6 km/h 76 % 0 mm
18:57 -15.1 °C -17.2 °C 34063.2 hPa Calm   2.6 km/h 76 % 0 mm
19:02 -15.1 °C -17.4 °C 34049.6 hPa Calm     75 % 0 mm
19:12 -15.2 °C -17.4 °C 34049.6 hPa Calm     75 % 0 mm
19:22 -15.4 °C -17.6 °C 34063.2 hPa Calm     76 % 0 mm
19:32 -15.7 °C -17.6 °C 34063.2 hPa Calm     79 % 0 mm
19:42 -16.2 °C -17.8 °C 34063.2 hPa Calm     82 % 0 mm
19:47 -16.3 °C -17.6 °C 34063.2 hPa Calm     85 % 0 mm
19:57 -16.6 °C -17.8 °C 34049.6 hPa Calm     85 % 0 mm
20:02 -16.7 °C -17.9 °C 34049.6 hPa Calm     86 % 0 mm
20:07 -16.7 °C -17.8 °C 34049.6 hPa Calm     87 % 0 mm
20:12 -16.8 °C -17.8 °C 34049.6 hPa Calm     87 % 0 mm
20:17 -16.8 °C -17.8 °C 34049.6 hPa Calm     88 % 0 mm
20:27 -16.6 °C -17.7 °C 34049.6 hPa Calm     87 % 0 mm
20:32 -16.5 °C -17.6 °C 34049.6 hPa Calm     87 % 0 mm
20:37 -16.4 °C -17.6 °C 34049.6 hPa Calm   2.6 km/h 86 % 0 mm
20:42 -16.3 °C -17.4 °C 34049.6 hPa Calm   2.6 km/h 86 % 0 mm
20:52 -16.2 °C -17.4 °C 34049.6 hPa Calm   2.6 km/h 85 % 0 mm
21:02 -15.9 °C -17.3 °C 34049.6 hPa SW 2.6 km/h 5.1 km/h 83 % 0 mm
21:12 -15.8 °C -17.2 °C 34049.6 hPa Calm   5.1 km/h 83 % 0 mm
21:17 -15.8 °C -17.2 °C 34049.6 hPa Calm   5.1 km/h 84 % 0 mm
21:27 -15.9 °C -17.2 °C 34049.6 hPa Calm   2.6 km/h 85 % 0 mm
21:32 -15.9 °C -17.2 °C 34049.6 hPa SW 2.6 km/h 2.6 km/h 85 % 0 mm
21:38 -15.8 °C -17.1 °C 34049.6 hPa Calm   2.6 km/h 84 % 0 mm
21:47 -15.8 °C -17.1 °C 34049.6 hPa Calm   5.1 km/h 85 % 0 mm
21:52 -15.8 °C -17.1 °C 34049.6 hPa SW 2.6 km/h 5.1 km/h 85 % 0 mm
21:57 -15.7 °C -17 °C 34049.6 hPa SW 2.6 km/h 5.1 km/h 85 % 0 mm
22:07 -15.7 °C -16.9 °C 34049.6 hPa WSW 2.6 km/h 10.3 km/h 85 % 0 mm
22:12 -15.7 °C -16.9 °C 34049.6 hPa East 2.6 km/h 10.3 km/h 85 % 0 mm
22:22 -15.7 °C -17 °C 34049.6 hPa SSW 2.6 km/h 12.9 km/h 85 % 0 mm
22:27 -15.7 °C -17 °C 34049.6 hPa SW 2.6 km/h 12.9 km/h 85 % 0 mm
22:32 -15.7 °C -16.9 °C 34039.5 hPa SW 7.7 km/h 12.9 km/h 86 % 0 mm
22:42 -15.8 °C -16.9 °C 34039.5 hPa Calm   10.3 km/h 86 % 0 mm
22:47 -15.8 °C -16.9 °C 34039.5 hPa Calm   10.3 km/h 87 % 0 mm
22:52 -15.8 °C -16.9 °C 34039.5 hPa WSW 2.6 km/h 7.7 km/h 87 % 0 mm
22:57 -15.9 °C -17 °C 34039.5 hPa Calm   7.7 km/h 87 % 0 mm
23:02 -15.9 °C -17 °C 34029.3 hPa SW 2.6 km/h 10.3 km/h 87 % 0 mm
23:07 -15.9 °C -16.9 °C 34029.3 hPa SW 2.6 km/h 10.3 km/h 88 % 0 mm
23:12 -15.9 °C -16.9 °C 34029.3 hPa WSW 2.6 km/h 5.1 km/h 88 % 0 mm
23:22 -15.9 °C -16.9 °C 34029.3 hPa Calm   7.7 km/h 88 % 0 mm
23:27 -15.9 °C -16.9 °C 34029.3 hPa Calm   5.1 km/h 88 % 0 mm
23:32 -16 °C -17 °C 34029.3 hPa Calm   5.1 km/h 88 % 0 mm
23:37 -16 °C -16.9 °C 34029.3 hPa WSW 2.6 km/h 5.1 km/h 89 % 0 mm
23:42 -16.1 °C -16.9 °C 34029.3 hPa Calm   2.6 km/h 89 % 0 mm
23:47 -16.1 °C -16.9 °C 34015.8 hPa WSW 2.6 km/h 5.1 km/h 90 % 0 mm
23:52 -16.2 °C -16.9 °C 34015.8 hPa Calm   5.1 km/h 91 % 0 mm
23:57 -16.2 °C -16.9 °C 34015.8 hPa SW 2.6 km/h 5.1 km/h 91 % 0 mm
Meteo18
Compliments of Weather Underground - 4 mb

Script developed by  Jim McMurry - jmcmurry@mwt.net Adapted for the template by  Wim van der Kuil - Leuven-Template.eu

You find our weather info also at:

European Weather Network

Weather Underground

Equipment we use:

Weather-station
Davis Vue

Weather-program
Meteobridge

Weather-server
Raspberry PI 2 B+

Provider
1 and 1

Davis Vue

Meteobridge

Raspberry PI 2 B+

1 and 1